sensor_id;sensor_type;location;lat;lon;timestamp;P1;durP1;ratioP1;P2;durP2;ratioP2
73276;SDS011;61501;43.316;5.372;2023-02-28T00:00:48;3.67;;;1.98;;
73276;SDS011;61501;43.316;5.372;2023-02-28T00:03:14;3.40;;;1.80;;
73276;SDS011;61501;43.316;5.372;2023-02-28T00:05:40;4.40;;;2.22;;
73276;SDS011;61501;43.316;5.372;2023-02-28T00:08:06;3.33;;;2.17;;
73276;SDS011;61501;43.316;5.372;2023-02-28T00:13:10;6.35;;;2.50;;
73276;SDS011;61501;43.316;5.372;2023-02-28T00:15:36;3.55;;;1.63;;
73276;SDS011;61501;43.316;5.372;2023-02-28T00:18:02;3.75;;;1.98;;
73276;SDS011;61501;43.316;5.372;2023-02-28T00:20:28;4.75;;;2.35;;
73276;SDS011;61501;43.316;5.372;2023-02-28T00:22:54;4.35;;;2.05;;
73276;SDS011;61501;43.316;5.372;2023-02-28T00:25:24;3.95;;;2.05;;
73276;SDS011;61501;43.316;5.372;2023-02-28T00:27:50;3.67;;;2.13;;
73276;SDS011;61501;43.316;5.372;2023-02-28T00:30:16;5.25;;;2.42;;
73276;SDS011;61501;43.316;5.372;2023-02-28T00:32:43;3.42;;;2.10;;
73276;SDS011;61501;43.316;5.372;2023-02-28T00:35:09;3.88;;;2.00;;
73276;SDS011;61501;43.316;5.372;2023-02-28T00:37:36;3.47;;;2.15;;
73276;SDS011;61501;43.316;5.372;2023-02-28T00:40:02;4.65;;;3.10;;
73276;SDS011;61501;43.316;5.372;2023-02-28T00:42:32;8.57;;;4.60;;
73276;SDS011;61501;43.316;5.372;2023-02-28T00:44:58;7.15;;;4.88;;
73276;SDS011;61501;43.316;5.372;2023-02-28T00:47:24;6.60;;;4.93;;
73276;SDS011;61501;43.316;5.372;2023-02-28T00:49:50;7.45;;;5.15;;
73276;SDS011;61501;43.316;5.372;2023-02-28T00:52:16;6.80;;;4.57;;
73276;SDS011;61501;43.316;5.372;2023-02-28T00:54:42;7.90;;;5.60;;
73276;SDS011;61501;43.316;5.372;2023-02-28T00:57:07;7.10;;;4.95;;
73276;SDS011;61501;43.316;5.372;2023-02-28T00:59:33;7.30;;;4.97;;
73276;SDS011;61501;43.316;5.372;2023-02-28T01:01:59;9.27;;;5.07;;
73276;SDS011;61501;43.316;5.372;2023-02-28T01:04:24;8.82;;;5.20;;
73276;SDS011;61501;43.316;5.372;2023-02-28T01:06:50;7.88;;;4.80;;
73276;SDS011;61501;43.316;5.372;2023-02-28T01:09:16;5.88;;;4.70;;
73276;SDS011;61501;43.316;5.372;2023-02-28T01:11:41;6.75;;;4.50;;
73276;SDS011;61501;43.316;5.372;2023-02-28T01:14:09;8.20;;;4.50;;
73276;SDS011;61501;43.316;5.372;2023-02-28T01:16:41;8.80;;;4.65;;
73276;SDS011;61501;43.316;5.372;2023-02-28T01:19:07;6.47;;;4.95;;
73276;SDS011;61501;43.316;5.372;2023-02-28T01:21:33;5.30;;;4.18;;
73276;SDS011;61501;43.316;5.372;2023-02-28T01:24:00;5.32;;;4.22;;
73276;SDS011;61501;43.316;5.372;2023-02-28T01:26:26;6.50;;;4.40;;
73276;SDS011;61501;43.316;5.372;2023-02-28T01:28:52;7.07;;;4.57;;
73276;SDS011;61501;43.316;5.372;2023-02-28T01:31:19;7.18;;;4.80;;
73276;SDS011;61501;43.316;5.372;2023-02-28T01:33:45;5.82;;;4.32;;
73276;SDS011;61501;43.316;5.372;2023-02-28T01:36:17;6.32;;;4.63;;
73276;SDS011;61501;43.316;5.372;2023-02-28T01:38:45;7.25;;;5.07;;
73276;SDS011;61501;43.316;5.372;2023-02-28T01:41:31;7.93;;;5.00;;
73276;SDS011;61501;43.316;5.372;2023-02-28T01:44:00;7.55;;;4.78;;
73276;SDS011;61501;43.316;5.372;2023-02-28T01:46:52;7.75;;;5.25;;
73276;SDS011;61501;43.316;5.372;2023-02-28T01:49:17;8.25;;;5.10;;
73276;SDS011;61501;43.316;5.372;2023-02-28T01:52:05;9.70;;;6.05;;
73276;SDS011;61501;43.316;5.372;2023-02-28T01:54:31;7.97;;;5.18;;
73276;SDS011;61501;43.316;5.372;2023-02-28T01:59:33;7.28;;;4.97;;
73276;SDS011;61501;43.316;5.372;2023-02-28T02:02:05;7.43;;;4.93;;
73276;SDS011;61501;43.316;5.372;2023-02-28T02:04:37;8.75;;;5.15;;
73276;SDS011;61501;43.316;5.372;2023-02-28T02:07:06;7.90;;;5.50;;
73276;SDS011;61501;43.316;5.372;2023-02-28T02:09:33;8.43;;;5.18;;
73276;SDS011;61501;43.316;5.372;2023-02-28T02:11:58;8.77;;;5.45;;
73276;SDS011;61501;43.316;5.372;2023-02-28T02:17:10;22.60;;;8.98;;
73276;SDS011;61501;43.316;5.372;2023-02-28T02:22:38;13.25;;;6.00;;
73276;SDS011;61501;43.316;5.372;2023-02-28T02:28:46;6.43;;;3.10;;
73276;SDS011;61501;43.316;5.372;2023-02-28T02:36:29;6.03;;;2.33;;
73276;SDS011;61501;43.316;5.372;2023-02-28T02:39:12;4.25;;;2.10;;
73276;SDS011;61501;43.316;5.372;2023-02-28T02:42:03;4.50;;;1.98;;
73276;SDS011;61501;43.316;5.372;2023-02-28T02:47:06;4.75;;;1.90;;
73276;SDS011;61501;43.316;5.372;2023-02-28T02:49:37;3.67;;;2.00;;
73276;SDS011;61501;43.316;5.372;2023-02-28T02:52:06;4.15;;;1.70;;
73276;SDS011;61501;43.316;5.372;2023-02-28T02:54:36;4.28;;;1.77;;
73276;SDS011;61501;43.316;5.372;2023-02-28T02:57:09;3.78;;;1.85;;
73276;SDS011;61501;43.316;5.372;2023-02-28T02:59:42;5.45;;;1.90;;
73276;SDS011;61501;43.316;5.372;2023-02-28T03:02:10;4.03;;;2.10;;
73276;SDS011;61501;43.316;5.372;2023-02-28T03:04:42;3.95;;;1.70;;
73276;SDS011;61501;43.316;5.372;2023-02-28T03:07:11;4.15;;;1.95;;
73276;SDS011;61501;43.316;5.372;2023-02-28T03:09:37;2.85;;;1.70;;
73276;SDS011;61501;43.316;5.372;2023-02-28T03:12:03;3.05;;;1.40;;
73276;SDS011;61501;43.316;5.372;2023-02-28T03:17:14;3.42;;;1.60;;
73276;SDS011;61501;43.316;5.372;2023-02-28T03:30:35;2.80;;;1.35;;
73276;SDS011;61501;43.316;5.372;2023-02-28T03:33:30;3.10;;;1.70;;
73276;SDS011;61501;43.316;5.372;2023-02-28T03:36:24;1.90;;;1.30;;
73276;SDS011;61501;43.316;5.372;2023-02-28T03:39:03;2.50;;;1.58;;
73276;SDS011;61501;43.316;5.372;2023-02-28T03:44:39;1.58;;;1.20;;
73276;SDS011;61501;43.316;5.372;2023-02-28T03:47:09;2.25;;;1.30;;
73276;SDS011;61501;43.316;5.372;2023-02-28T03:50:01;2.25;;;1.40;;
73276;SDS011;61501;43.316;5.372;2023-02-28T03:52:33;3.13;;;1.42;;
73276;SDS011;61501;43.316;5.372;2023-02-28T03:55:04;2.55;;;1.55;;
73276;SDS011;61501;43.316;5.372;2023-02-28T04:00:30;3.38;;;1.63;;
73276;SDS011;61501;43.316;5.372;2023-02-28T04:03:01;3.90;;;1.77;;
73276;SDS011;61501;43.316;5.372;2023-02-28T04:05:27;1.83;;;1.20;;
73276;SDS011;61501;43.316;5.372;2023-02-28T04:07:54;1.85;;;1.30;;
73276;SDS011;61501;43.316;5.372;2023-02-28T04:10:32;3.20;;;1.50;;
73276;SDS011;61501;43.316;5.372;2023-02-28T04:12:58;1.95;;;1.20;;
73276;SDS011;61501;43.316;5.372;2023-02-28T04:15:23;2.00;;;1.40;;
73276;SDS011;61501;43.316;5.372;2023-02-28T04:17:49;2.85;;;1.23;;
73276;SDS011;61501;43.316;5.372;2023-02-28T04:20:16;3.30;;;1.50;;
73276;SDS011;61501;43.316;5.372;2023-02-28T04:22:42;2.67;;;1.45;;
73276;SDS011;61501;43.316;5.372;2023-02-28T04:25:08;6.00;;;1.50;;
73276;SDS011;61501;43.316;5.372;2023-02-28T04:27:33;2.45;;;1.38;;
73276;SDS011;61501;43.316;5.372;2023-02-28T04:29:59;2.03;;;1.30;;
73276;SDS011;61501;43.316;5.372;2023-02-28T04:32:25;2.78;;;1.63;;
73276;SDS011;61501;43.316;5.372;2023-02-28T04:34:51;3.55;;;1.70;;
73276;SDS011;61501;43.316;5.372;2023-02-28T04:37:16;2.33;;;1.60;;
73276;SDS011;61501;43.316;5.372;2023-02-28T04:39:42;4.90;;;2.33;;
73276;SDS011;61501;43.316;5.372;2023-02-28T04:42:08;3.13;;;2.25;;
73276;SDS011;61501;43.316;5.372;2023-02-28T04:44:34;4.72;;;3.35;;
73276;SDS011;61501;43.316;5.372;2023-02-28T04:47:00;5.72;;;3.85;;
73276;SDS011;61501;43.316;5.372;2023-02-28T04:49:26;6.40;;;3.90;;
73276;SDS011;61501;43.316;5.372;2023-02-28T04:51:51;6.28;;;4.68;;
73276;SDS011;61501;43.316;5.372;2023-02-28T04:54:18;5.82;;;4.80;;
73276;SDS011;61501;43.316;5.372;2023-02-28T04:56:43;5.07;;;4.57;;
73276;SDS011;61501;43.316;5.372;2023-02-28T04:59:09;6.32;;;5.13;;
73276;SDS011;61501;43.316;5.372;2023-02-28T05:01:35;7.57;;;6.13;;
73276;SDS011;61501;43.316;5.372;2023-02-28T05:04:01;8.85;;;5.90;;
73276;SDS011;61501;43.316;5.372;2023-02-28T05:06:29;8.90;;;6.32;;
73276;SDS011;61501;43.316;5.372;2023-02-28T05:08:56;7.43;;;5.47;;
73276;SDS011;61501;43.316;5.372;2023-02-28T05:11:29;9.35;;;6.13;;
73276;SDS011;61501;43.316;5.372;2023-02-28T05:14:04;8.77;;;6.53;;
73276;SDS011;61501;43.316;5.372;2023-02-28T05:16:34;8.98;;;6.50;;
73276;SDS011;61501;43.316;5.372;2023-02-28T05:18:59;8.52;;;6.53;;
73276;SDS011;61501;43.316;5.372;2023-02-28T05:21:29;9.48;;;6.80;;
73276;SDS011;61501;43.316;5.372;2023-02-28T05:23:58;9.27;;;6.68;;
73276;SDS011;61501;43.316;5.372;2023-02-28T05:26:28;8.82;;;6.50;;
73276;SDS011;61501;43.316;5.372;2023-02-28T05:28:55;8.55;;;7.22;;
73276;SDS011;61501;43.316;5.372;2023-02-28T05:31:21;8.23;;;7.15;;
73276;SDS011;61501;43.316;5.372;2023-02-28T05:33:46;8.70;;;7.55;;
73276;SDS011;61501;43.316;5.372;2023-02-28T05:36:13;9.00;;;7.55;;
73276;SDS011;61501;43.316;5.372;2023-02-28T05:38:38;8.77;;;7.60;;
73276;SDS011;61501;43.316;5.372;2023-02-28T05:41:07;8.70;;;7.35;;
73276;SDS011;61501;43.316;5.372;2023-02-28T05:43:34;11.82;;;7.95;;
73276;SDS011;61501;43.316;5.372;2023-02-28T05:46:07;10.55;;;8.40;;
73276;SDS011;61501;43.316;5.372;2023-02-28T05:48:35;10.25;;;8.45;;
73276;SDS011;61501;43.316;5.372;2023-02-28T05:54:01;9.63;;;8.60;;
73276;SDS011;61501;43.316;5.372;2023-02-28T05:56:27;9.50;;;8.13;;
73276;SDS011;61501;43.316;5.372;2023-02-28T05:58:53;10.80;;;9.02;;
73276;SDS011;61501;43.316;5.372;2023-02-28T06:01:32;10.70;;;8.50;;
73276;SDS011;61501;43.316;5.372;2023-02-28T06:04:00;9.82;;;8.70;;
73276;SDS011;61501;43.316;5.372;2023-02-28T06:06:28;9.73;;;8.73;;
73276;SDS011;61501;43.316;5.372;2023-02-28T06:08:54;11.30;;;9.30;;
73276;SDS011;61501;43.316;5.372;2023-02-28T06:11:21;12.73;;;10.15;;
73276;SDS011;61501;43.316;5.372;2023-02-28T06:13:52;9.82;;;8.82;;
73276;SDS011;61501;43.316;5.372;2023-02-28T06:16:24;10.02;;;8.02;;
73276;SDS011;61501;43.316;5.372;2023-02-28T06:18:50;10.50;;;8.15;;
73276;SDS011;61501;43.316;5.372;2023-02-28T06:21:17;11.50;;;8.30;;
73276;SDS011;61501;43.316;5.372;2023-02-28T06:23:44;10.68;;;8.77;;
73276;SDS011;61501;43.316;5.372;2023-02-28T06:26:10;10.27;;;7.75;;
73276;SDS011;61501;43.316;5.372;2023-02-28T06:28:36;12.32;;;8.30;;
73276;SDS011;61501;43.316;5.372;2023-02-28T06:31:05;11.05;;;7.85;;
73276;SDS011;61501;43.316;5.372;2023-02-28T06:33:36;9.20;;;8.30;;
73276;SDS011;61501;43.316;5.372;2023-02-28T06:36:02;10.27;;;8.80;;
73276;SDS011;61501;43.316;5.372;2023-02-28T06:38:28;11.45;;;7.85;;
73276;SDS011;61501;43.316;5.372;2023-02-28T06:40:54;12.00;;;9.07;;
73276;SDS011;61501;43.316;5.372;2023-02-28T06:43:21;12.70;;;8.68;;
73276;SDS011;61501;43.316;5.372;2023-02-28T06:45:48;11.48;;;9.25;;
73276;SDS011;61501;43.316;5.372;2023-02-28T06:48:14;10.10;;;8.82;;
73276;SDS011;61501;43.316;5.372;2023-02-28T06:50:39;10.80;;;9.05;;
73276;SDS011;61501;43.316;5.372;2023-02-28T06:53:05;12.13;;;9.00;;
73276;SDS011;61501;43.316;5.372;2023-02-28T06:55:31;13.35;;;9.70;;
73276;SDS011;61501;43.316;5.372;2023-02-28T06:57:56;11.65;;;9.90;;
73276;SDS011;61501;43.316;5.372;2023-02-28T07:00:23;12.60;;;8.95;;
73276;SDS011;61501;43.316;5.372;2023-02-28T07:02:49;10.77;;;9.38;;
73276;SDS011;61501;43.316;5.372;2023-02-28T07:05:15;10.82;;;9.48;;
73276;SDS011;61501;43.316;5.372;2023-02-28T07:07:41;11.75;;;8.75;;
73276;SDS011;61501;43.316;5.372;2023-02-28T07:10:12;16.83;;;10.05;;
73276;SDS011;61501;43.316;5.372;2023-02-28T07:12:39;13.25;;;9.90;;
73276;SDS011;61501;43.316;5.372;2023-02-28T07:15:05;11.10;;;9.50;;
73276;SDS011;61501;43.316;5.372;2023-02-28T07:17:31;9.90;;;7.93;;
73276;SDS011;61501;43.316;5.372;2023-02-28T07:19:57;8.63;;;7.78;;
73276;SDS011;61501;43.316;5.372;2023-02-28T07:22:23;9.75;;;7.82;;
73276;SDS011;61501;43.316;5.372;2023-02-28T07:24:49;8.45;;;7.63;;
73276;SDS011;61501;43.316;5.372;2023-02-28T07:27:15;8.20;;;7.32;;
73276;SDS011;61501;43.316;5.372;2023-02-28T07:32:14;7.30;;;6.57;;
73276;SDS011;61501;43.316;5.372;2023-02-28T07:34:40;9.27;;;6.57;;
73276;SDS011;61501;43.316;5.372;2023-02-28T07:37:06;7.43;;;6.47;;
73276;SDS011;61501;43.316;5.372;2023-02-28T07:39:32;8.40;;;7.03;;
73276;SDS011;61501;43.316;5.372;2023-02-28T07:41:57;9.18;;;7.50;;
73276;SDS011;61501;43.316;5.372;2023-02-28T07:44:24;9.98;;;8.13;;
73276;SDS011;61501;43.316;5.372;2023-02-28T07:46:51;10.30;;;7.85;;
73276;SDS011;61501;43.316;5.372;2023-02-28T07:49:17;11.02;;;8.30;;
73276;SDS011;61501;43.316;5.372;2023-02-28T07:51:43;10.70;;;9.60;;
73276;SDS011;61501;43.316;5.372;2023-02-28T07:54:09;11.77;;;10.68;;
73276;SDS011;61501;43.316;5.372;2023-02-28T07:56:35;13.23;;;10.60;;
73276;SDS011;61501;43.316;5.372;2023-02-28T07:59:00;12.02;;;9.57;;
73276;SDS011;61501;43.316;5.372;2023-02-28T08:01:27;10.55;;;9.43;;
73276;SDS011;61501;43.316;5.372;2023-02-28T08:03:52;12.45;;;10.93;;
73276;SDS011;61501;43.316;5.372;2023-02-28T08:06:21;15.27;;;10.10;;
73276;SDS011;61501;43.316;5.372;2023-02-28T08:08:48;13.77;;;10.20;;
73276;SDS011;61501;43.316;5.372;2023-02-28T08:11:14;10.98;;;9.73;;
73276;SDS011;61501;43.316;5.372;2023-02-28T08:13:41;15.45;;;10.65;;
73276;SDS011;61501;43.316;5.372;2023-02-28T08:16:08;12.35;;;10.25;;
73276;SDS011;61501;43.316;5.372;2023-02-28T08:18:35;12.05;;;10.23;;
73276;SDS011;61501;43.316;5.372;2023-02-28T08:21:08;11.77;;;9.40;;
73276;SDS011;61501;43.316;5.372;2023-02-28T08:23:34;16.48;;;10.70;;
73276;SDS011;61501;43.316;5.372;2023-02-28T08:26:01;15.75;;;10.15;;
73276;SDS011;61501;43.316;5.372;2023-02-28T08:28:26;15.55;;;10.57;;
73276;SDS011;61501;43.316;5.372;2023-02-28T08:30:52;13.30;;;10.77;;
73276;SDS011;61501;43.316;5.372;2023-02-28T08:33:18;15.52;;;11.68;;
73276;SDS011;61501;43.316;5.372;2023-02-28T08:35:44;16.77;;;12.82;;
73276;SDS011;61501;43.316;5.372;2023-02-28T08:38:10;13.60;;;11.25;;
73276;SDS011;61501;43.316;5.372;2023-02-28T08:40:35;11.55;;;10.35;;
73276;SDS011;61501;43.316;5.372;2023-02-28T08:43:01;13.52;;;11.65;;
73276;SDS011;61501;43.316;5.372;2023-02-28T08:45:27;14.35;;;12.80;;
73276;SDS011;61501;43.316;5.372;2023-02-28T08:47:54;15.75;;;12.93;;
73276;SDS011;61501;43.316;5.372;2023-02-28T08:50:20;17.88;;;15.65;;
73276;SDS011;61501;43.316;5.372;2023-02-28T08:52:47;17.70;;;15.80;;
73276;SDS011;61501;43.316;5.372;2023-02-28T08:55:12;15.90;;;14.20;;
73276;SDS011;61501;43.316;5.372;2023-02-28T08:57:38;16.25;;;14.05;;
73276;SDS011;61501;43.316;5.372;2023-02-28T09:00:04;17.33;;;13.75;;
73276;SDS011;61501;43.316;5.372;2023-02-28T09:02:30;17.40;;;12.93;;
73276;SDS011;61501;43.316;5.372;2023-02-28T09:04:57;15.73;;;12.80;;
73276;SDS011;61501;43.316;5.372;2023-02-28T09:07:23;15.25;;;12.70;;
73276;SDS011;61501;43.316;5.372;2023-02-28T09:09:49;17.13;;;12.68;;
73276;SDS011;61501;43.316;5.372;2023-02-28T09:12:22;15.17;;;13.67;;
73276;SDS011;61501;43.316;5.372;2023-02-28T09:14:52;13.73;;;12.30;;
73276;SDS011;61501;43.316;5.372;2023-02-28T09:17:18;13.48;;;12.05;;
73276;SDS011;61501;43.316;5.372;2023-02-28T09:19:44;12.55;;;11.30;;
73276;SDS011;61501;43.316;5.372;2023-02-28T09:22:10;14.27;;;13.07;;
73276;SDS011;61501;43.316;5.372;2023-02-28T09:24:36;14.98;;;13.00;;
73276;SDS011;61501;43.316;5.372;2023-02-28T09:27:02;14.00;;;12.80;;
73276;SDS011;61501;43.316;5.372;2023-02-28T09:29:29;13.57;;;12.38;;
73276;SDS011;61501;43.316;5.372;2023-02-28T09:31:55;13.48;;;12.38;;
73276;SDS011;61501;43.316;5.372;2023-02-28T09:34:23;14.70;;;13.30;;
73276;SDS011;61501;43.316;5.372;2023-02-28T09:36:52;16.95;;;15.60;;
73276;SDS011;61501;43.316;5.372;2023-02-28T09:39:19;15.88;;;14.45;;
73276;SDS011;61501;43.316;5.372;2023-02-28T09:41:47;14.60;;;13.40;;
73276;SDS011;61501;43.316;5.372;2023-02-28T09:44:18;14.85;;;13.63;;
73276;SDS011;61501;43.316;5.372;2023-02-28T09:46:51;13.35;;;11.77;;
73276;SDS011;61501;43.316;5.372;2023-02-28T09:49:25;12.95;;;11.82;;
73276;SDS011;61501;43.316;5.372;2023-02-28T09:52:09;12.75;;;11.75;;
73276;SDS011;61501;43.316;5.372;2023-02-28T09:54:38;14.02;;;12.75;;
73276;SDS011;61501;43.316;5.372;2023-02-28T10:05:15;13.85;;;12.55;;
73276;SDS011;61501;43.316;5.372;2023-02-28T10:10:32;14.32;;;12.95;;
73276;SDS011;61501;43.316;5.372;2023-02-28T10:12:59;13.57;;;12.27;;
73276;SDS011;61501;43.316;5.372;2023-02-28T10:15:27;14.20;;;12.80;;
73276;SDS011;61501;43.316;5.372;2023-02-28T10:18:03;14.00;;;12.80;;
73276;SDS011;61501;43.316;5.372;2023-02-28T10:20:35;14.63;;;13.00;;
73276;SDS011;61501;43.316;5.372;2023-02-28T10:23:27;14.68;;;13.35;;
73276;SDS011;61501;43.316;5.372;2023-02-28T10:26:14;13.77;;;12.68;;
73276;SDS011;61501;43.316;5.372;2023-02-28T10:28:43;14.77;;;13.45;;
73276;SDS011;61501;43.316;5.372;2023-02-28T10:31:17;14.60;;;13.40;;
73276;SDS011;61501;43.316;5.372;2023-02-28T10:33:44;15.32;;;13.85;;
73276;SDS011;61501;43.316;5.372;2023-02-28T10:36:14;15.73;;;14.10;;
73276;SDS011;61501;43.316;5.372;2023-02-28T10:38:43;15.27;;;14.00;;
73276;SDS011;61501;43.316;5.372;2023-02-28T10:41:10;14.50;;;13.02;;
73276;SDS011;61501;43.316;5.372;2023-02-28T10:43:38;15.02;;;13.63;;
73276;SDS011;61501;43.316;5.372;2023-02-28T10:51:08;15.95;;;14.55;;
73276;SDS011;61501;43.316;5.372;2023-02-28T10:53:54;16.83;;;15.35;;
73276;SDS011;61501;43.316;5.372;2023-02-28T10:56:21;15.05;;;13.75;;
73276;SDS011;61501;43.316;5.372;2023-02-28T11:04:19;15.93;;;14.52;;
73276;SDS011;61501;43.316;5.372;2023-02-28T11:09:45;14.70;;;13.40;;
73276;SDS011;61501;43.316;5.372;2023-02-28T11:12:48;16.80;;;15.23;;
73276;SDS011;61501;43.316;5.372;2023-02-28T11:18:01;15.18;;;13.88;;
73276;SDS011;61501;43.316;5.372;2023-02-28T11:20:28;15.38;;;14.18;;
73276;SDS011;61501;43.316;5.372;2023-02-28T11:22:57;16.30;;;15.00;;
73276;SDS011;61501;43.316;5.372;2023-02-28T11:25:26;16.92;;;15.43;;
73276;SDS011;61501;43.316;5.372;2023-02-28T11:27:59;14.75;;;13.45;;
73276;SDS011;61501;43.316;5.372;2023-02-28T11:32:57;16.52;;;14.98;;
73276;SDS011;61501;43.316;5.372;2023-02-28T11:35:33;16.30;;;14.90;;
73276;SDS011;61501;43.316;5.372;2023-02-28T11:38:02;14.75;;;13.07;;
73276;SDS011;61501;43.316;5.372;2023-02-28T11:40:34;15.50;;;14.10;;
73276;SDS011;61501;43.316;5.372;2023-02-28T12:04:55;14.82;;;13.52;;
73276;SDS011;61501;43.316;5.372;2023-02-28T12:21:14;13.38;;;12.07;;
73276;SDS011;61501;43.316;5.372;2023-02-28T12:23:57;13.73;;;12.55;;
73276;SDS011;61501;43.316;5.372;2023-02-28T12:26:32;15.88;;;14.38;;
73276;SDS011;61501;43.316;5.372;2023-02-28T12:29:23;14.40;;;12.90;;
73276;SDS011;61501;43.316;5.372;2023-02-28T12:32:12;15.23;;;13.13;;
73276;SDS011;61501;43.316;5.372;2023-02-28T12:34:55;14.35;;;12.85;;
73276;SDS011;61501;43.316;5.372;2023-02-28T12:37:38;12.90;;;11.70;;
73276;SDS011;61501;43.316;5.372;2023-02-28T12:40:22;21.67;;;13.55;;
73276;SDS011;61501;43.316;5.372;2023-02-28T12:47:55;13.77;;;12.45;;
73276;SDS011;61501;43.316;5.372;2023-02-28T12:58:15;12.60;;;11.30;;
73276;SDS011;61501;43.316;5.372;2023-02-28T13:00:58;14.82;;;11.65;;
73276;SDS011;61501;43.316;5.372;2023-02-28T13:03:49;13.70;;;11.05;;
73276;SDS011;61501;43.316;5.372;2023-02-28T13:06:24;13.93;;;12.48;;
73276;SDS011;61501;43.316;5.372;2023-02-28T13:11:54;13.38;;;12.15;;
73276;SDS011;61501;43.316;5.372;2023-02-28T13:24:53;11.50;;;10.40;;
73276;SDS011;61501;43.316;5.372;2023-02-28T13:29:49;13.63;;;12.27;;
73276;SDS011;61501;43.316;5.372;2023-02-28T13:39:53;14.88;;;12.10;;
73276;SDS011;61501;43.316;5.372;2023-02-28T13:50:31;18.70;;;12.85;;
73276;SDS011;61501;43.316;5.372;2023-02-28T13:55:53;16.80;;;12.20;;
73276;SDS011;61501;43.316;5.372;2023-02-28T13:58:33;14.40;;;12.30;;
73276;SDS011;61501;43.316;5.372;2023-02-28T14:07:23;13.45;;;12.07;;
73276;SDS011;61501;43.316;5.372;2023-02-28T14:09:57;12.32;;;11.23;;
73276;SDS011;61501;43.316;5.372;2023-02-28T14:18:17;12.52;;;11.25;;
73276;SDS011;61501;43.316;5.372;2023-02-28T14:20:48;12.85;;;11.02;;
73276;SDS011;61501;43.316;5.372;2023-02-28T14:31:54;19.80;;;14.07;;
73276;SDS011;61501;43.316;5.372;2023-02-28T14:37:01;11.02;;;9.88;;
73276;SDS011;61501;43.316;5.372;2023-02-28T14:39:28;10.93;;;9.82;;
73276;SDS011;61501;43.316;5.372;2023-02-28T14:41:56;11.23;;;9.63;;
73276;SDS011;61501;43.316;5.372;2023-02-28T14:44:28;11.27;;;10.07;;
73276;SDS011;61501;43.316;5.372;2023-02-28T14:46:55;12.65;;;9.65;;
73276;SDS011;61501;43.316;5.372;2023-02-28T14:49:28;15.63;;;10.57;;
73276;SDS011;61501;43.316;5.372;2023-02-28T14:54:57;12.18;;;9.45;;
73276;SDS011;61501;43.316;5.372;2023-02-28T14:57:29;14.35;;;11.48;;
73276;SDS011;61501;43.316;5.372;2023-02-28T15:02:54;12.95;;;9.82;;
73276;SDS011;61501;43.316;5.372;2023-02-28T15:05:24;12.52;;;10.15;;
73276;SDS011;61501;43.316;5.372;2023-02-28T15:08:15;10.48;;;9.43;;
73276;SDS011;61501;43.316;5.372;2023-02-28T15:10:45;12.00;;;10.13;;
73276;SDS011;61501;43.316;5.372;2023-02-28T15:13:18;12.25;;;10.05;;
73276;SDS011;61501;43.316;5.372;2023-02-28T15:15:45;11.40;;;9.70;;
73276;SDS011;61501;43.316;5.372;2023-02-28T15:21:07;10.63;;;9.63;;
73276;SDS011;61501;43.316;5.372;2023-02-28T15:23:40;11.85;;;9.90;;
73276;SDS011;61501;43.316;5.372;2023-02-28T15:26:10;13.73;;;10.00;;
73276;SDS011;61501;43.316;5.372;2023-02-28T15:28:40;8.65;;;7.85;;
73276;SDS011;61501;43.316;5.372;2023-02-28T15:31:17;10.55;;;9.55;;
73276;SDS011;61501;43.316;5.372;2023-02-28T15:33:57;12.18;;;10.02;;
73276;SDS011;61501;43.316;5.372;2023-02-28T15:36:32;11.27;;;10.18;;
73276;SDS011;61501;43.316;5.372;2023-02-28T15:39:02;11.77;;;9.85;;
73276;SDS011;61501;43.316;5.372;2023-02-28T15:41:43;11.07;;;9.90;;
73276;SDS011;61501;43.316;5.372;2023-02-28T15:46:53;10.27;;;9.38;;
73276;SDS011;61501;43.316;5.372;2023-02-28T15:49:22;12.95;;;9.60;;
73276;SDS011;61501;43.316;5.372;2023-02-28T15:51:49;11.95;;;10.85;;
73276;SDS011;61501;43.316;5.372;2023-02-28T15:54:24;14.75;;;10.63;;
73276;SDS011;61501;43.316;5.372;2023-02-28T15:56:57;16.50;;;10.32;;
73276;SDS011;61501;43.316;5.372;2023-02-28T15:59:29;17.83;;;11.38;;
73276;SDS011;61501;43.316;5.372;2023-02-28T16:02:13;15.73;;;10.40;;
73276;SDS011;61501;43.316;5.372;2023-02-28T16:07:33;11.00;;;9.82;;
73276;SDS011;61501;43.316;5.372;2023-02-28T16:10:01;10.77;;;9.77;;
73276;SDS011;61501;43.316;5.372;2023-02-28T16:12:28;13.35;;;10.68;;
73276;SDS011;61501;43.316;5.372;2023-02-28T16:14:55;13.02;;;10.07;;
73276;SDS011;61501;43.316;5.372;2023-02-28T16:17:28;10.95;;;9.95;;
73276;SDS011;61501;43.316;5.372;2023-02-28T16:19:56;11.57;;;10.33;;
73276;SDS011;61501;43.316;5.372;2023-02-28T16:22:23;11.65;;;10.48;;
73276;SDS011;61501;43.316;5.372;2023-02-28T16:24:48;12.25;;;10.93;;
73276;SDS011;61501;43.316;5.372;2023-02-28T16:27:36;11.40;;;10.27;;
73276;SDS011;61501;43.316;5.372;2023-02-28T16:30:03;11.13;;;10.13;;
73276;SDS011;61501;43.316;5.372;2023-02-28T16:32:31;11.95;;;10.68;;
73276;SDS011;61501;43.316;5.372;2023-02-28T16:34:59;11.48;;;10.32;;
73276;SDS011;61501;43.316;5.372;2023-02-28T16:37:26;10.68;;;9.65;;
73276;SDS011;61501;43.316;5.372;2023-02-28T16:39:52;11.25;;;10.15;;
73276;SDS011;61501;43.316;5.372;2023-02-28T16:42:25;13.05;;;10.73;;
73276;SDS011;61501;43.316;5.372;2023-02-28T16:44:53;15.55;;;10.50;;
73276;SDS011;61501;43.316;5.372;2023-02-28T16:47:20;11.48;;;10.27;;
73276;SDS011;61501;43.316;5.372;2023-02-28T16:49:46;12.15;;;10.73;;
73276;SDS011;61501;43.316;5.372;2023-02-28T16:52:12;11.35;;;10.20;;
73276;SDS011;61501;43.316;5.372;2023-02-28T16:54:39;12.68;;;11.40;;
73276;SDS011;61501;43.316;5.372;2023-02-28T16:57:06;13.57;;;11.60;;
73276;SDS011;61501;43.316;5.372;2023-02-28T16:59:50;14.40;;;11.30;;
73276;SDS011;61501;43.316;5.372;2023-02-28T17:02:16;12.63;;;10.73;;
73276;SDS011;61501;43.316;5.372;2023-02-28T17:04:44;15.88;;;10.80;;
73276;SDS011;61501;43.316;5.372;2023-02-28T17:07:14;16.48;;;10.82;;
73276;SDS011;61501;43.316;5.372;2023-02-28T17:09:41;12.65;;;11.23;;
73276;SDS011;61501;43.316;5.372;2023-02-28T17:12:08;12.23;;;10.95;;
73276;SDS011;61501;43.316;5.372;2023-02-28T17:14:34;13.68;;;11.27;;
73276;SDS011;61501;43.316;5.372;2023-02-28T17:17:00;13.07;;;11.65;;
73276;SDS011;61501;43.316;5.372;2023-02-28T17:19:26;12.90;;;11.57;;
73276;SDS011;61501;43.316;5.372;2023-02-28T17:21:53;13.13;;;11.93;;
73276;SDS011;61501;43.316;5.372;2023-02-28T17:24:18;13.60;;;11.27;;
73276;SDS011;61501;43.316;5.372;2023-02-28T17:26:44;18.30;;;15.73;;
73276;SDS011;61501;43.316;5.372;2023-02-28T17:29:17;12.88;;;11.77;;
73276;SDS011;61501;43.316;5.372;2023-02-28T17:31:45;13.35;;;11.65;;
73276;SDS011;61501;43.316;5.372;2023-02-28T17:34:10;13.95;;;12.30;;
73276;SDS011;61501;43.316;5.372;2023-02-28T17:36:42;18.63;;;15.77;;
73276;SDS011;61501;43.316;5.372;2023-02-28T17:39:09;13.43;;;11.52;;
73276;SDS011;61501;43.316;5.372;2023-02-28T17:41:39;12.88;;;11.65;;
73276;SDS011;61501;43.316;5.372;2023-02-28T17:44:06;14.38;;;12.27;;
73276;SDS011;61501;43.316;5.372;2023-02-28T17:46:32;13.55;;;12.35;;
73276;SDS011;61501;43.316;5.372;2023-02-28T17:48:58;15.00;;;12.43;;
73276;SDS011;61501;43.316;5.372;2023-02-28T17:51:25;13.20;;;11.40;;
73276;SDS011;61501;43.316;5.372;2023-02-28T17:53:51;13.05;;;11.73;;
73276;SDS011;61501;43.316;5.372;2023-02-28T17:56:21;12.55;;;11.25;;
73276;SDS011;61501;43.316;5.372;2023-02-28T17:58:48;12.77;;;11.57;;
73276;SDS011;61501;43.316;5.372;2023-02-28T18:01:16;12.80;;;11.60;;
73276;SDS011;61501;43.316;5.372;2023-02-28T18:03:42;12.07;;;10.82;;